KAXV/AXV METAR and TAF weather

Enter ICAO airport designator
Station Type Date Time Source
KAXV METAR 2021/09/16 10:55 UTC NOAA

KAXV 161055Z AUTO 00000KT 1SM BR OVC002 11/11 A3012 RMK AO2


Station Type Date Time Source
KAXV Decoded METAR 2021/09/16 10:55 UTC NOAA

Station name not available
Sep 16, 2021 - 06:55 AM EDT / 2021.09.16 1055 UTC
Wind: Calm:0
Visibility: 1 mile(s):0
Sky conditions: overcast
Weather: mist
Temperature: 51 F (11 C)
Dew Point: 51 F (11 C)
Relative Humidity: 100%
Pressure (altimeter): 30.12 in. Hg (1019 hPa)
ob: KAXV 161055Z AUTO 00000KT 1SM BR OVC002 11/11 A3012 RMK AO2
cycle: 11

Station Type Date Time Source
KAXV TAF UTC NOAA

Error!

Example: see airport list